Airfield :
LOGIN :

Register | Disclaimer

   EN    FR    IT 

 










Legend :    VFR   Marginal VFR   IFR   Intensive IFR   Very Intensive IFR
Visi :
Ceiling :
>= 8 km
>= 3000ft
5 to 8 km
1000 to 3000 ft
1500m to 5 km
500 to 1000 ft
800 to 1500m
200 to 500 ft
< 800m
< 200 ft
Symbols :   Thunderstorms  Fog  Heavy snow  Heavy precipitations  Wind > 20 kt
SIGMETs :     Misc.  Thunderstorms  Icing  Turbulence  Mountain Waves  Volcanic Ashes






- Airport Elevation : 359 ft
- IATA code : BVA


LFOB - Beauvais

CURRENT METAR :
  • 280300Z AUTO 22005KT 9000 BKN004 BKN008 OVC046 09/08 Q1010 TEMPO 3000 RA

EXPIRED METARs :
  • 280230Z AUTO 24006KT 210V270 9999 OVC004 09/08 Q1010 TEMPO 3000 RA
  • 280200Z AUTO VRB01KT 9999 OVC004 09/08 Q1011 TEMPO 3000 RA
  • 272200Z AUTO 18003KT 150V210 9999 -DZ BKN009 OVC013 08/07 Q1011 TEMPO 3000 OVC004
  • 280130Z AUTO VRB03KT 9999 OVC005 08/08 Q1010 TEMPO 3000 RA

TAF TAF LFOB
Valid from the 28 at 00:00 until the 29 at 00:00 UTC


272300Z 2800/2824 20006KT 9999 OVC008
TEMPO 2800/2805 3000 RA OVC004
TEMPO 2805/2810 OVC004
BECMG 2811/2814 BKN016
BECMG 2821/2824 0600 FG VV///
ATIS : +33 3 44 11 49 28



MET'MAP, your aeronautical weather chart ! - Copyright ORBIFLY December 2007 - Disclaimer

ORBIFLY MET'MAP TEAM :

Programming & Development : Alexandra Zaïnal
Original concept : Baudouin d'Aumeries
Technical & hardware support : Manuel Goepfert
Assistance : Marc-Olivier Méhu




SOURCES & CREDITS :

   NOAA